createdAt,value
2023-02-22T00:02:13.163Z,8.50
2023-02-22T00:04:41.353Z,8.50
2023-02-22T00:07:09.783Z,8.50
2023-02-22T00:09:39.412Z,8.60
2023-02-22T00:12:08.609Z,8.60
2023-02-22T00:14:36.874Z,8.70
2023-02-22T00:17:05.178Z,8.70
2023-02-22T00:19:34.094Z,8.80
2023-02-22T00:22:02.188Z,8.80
2023-02-22T00:24:31.394Z,8.80
2023-02-22T00:27:00.749Z,8.80
2023-02-22T00:29:29.544Z,8.80
2023-02-22T00:31:57.797Z,8.80
2023-02-22T00:34:26.538Z,8.80
2023-02-22T00:36:54.677Z,8.80
2023-02-22T00:39:22.875Z,8.80
2023-02-22T00:41:51.200Z,8.80
2023-02-22T00:44:20.788Z,8.80
2023-02-22T00:46:49.722Z,8.80
2023-02-22T00:49:17.909Z,8.80
2023-02-22T00:51:46.430Z,8.70
2023-02-22T00:54:14.530Z,8.70
2023-02-22T00:56:43.267Z,8.80
2023-02-22T00:59:11.855Z,8.70
2023-02-22T01:01:41.477Z,8.70
2023-02-22T01:04:09.704Z,8.60
2023-02-22T01:06:38.014Z,8.60
2023-02-22T01:09:07.692Z,8.60
2023-02-22T01:11:35.998Z,8.70
2023-02-22T01:14:04.110Z,8.70
2023-02-22T01:16:32.227Z,8.70
2023-02-22T01:19:01.815Z,8.70
2023-02-22T01:21:30.395Z,8.70
2023-02-22T01:23:58.607Z,8.70
2023-02-22T01:26:27.451Z,8.50
2023-02-22T01:28:55.742Z,8.40
2023-02-22T01:31:24.997Z,8.30
2023-02-22T01:33:53.780Z,8.40
2023-02-22T01:36:23.303Z,8.30
2023-02-22T01:38:51.457Z,8.40
2023-02-22T01:41:19.791Z,8.40
2023-02-22T01:43:48.064Z,8.40
2023-02-22T01:46:24.392Z,8.30
2023-02-22T01:48:58.046Z,8.40
2023-02-22T01:51:31.672Z,8.50
2023-02-22T01:54:02.696Z,8.50
2023-02-22T01:56:33.634Z,8.50
2023-02-22T01:59:06.784Z,8.50
2023-02-22T02:01:36.632Z,8.60
2023-02-22T02:04:12.954Z,8.60
2023-02-22T02:06:43.370Z,8.60
2023-02-22T02:09:17.660Z,8.60
2023-02-22T02:11:46.698Z,8.60
2023-02-22T02:14:15.711Z,8.50
2023-02-22T02:16:50.664Z,8.50
2023-02-22T02:19:29.624Z,8.50
2023-02-22T02:22:36.945Z,8.50
2023-02-22T02:25:38.214Z,8.40
2023-02-22T02:28:39.302Z,8.40
2023-02-22T02:31:24.578Z,8.40
2023-02-22T02:33:58.923Z,8.50
2023-02-22T02:36:33.013Z,8.50
2023-02-22T02:39:10.233Z,8.50
2023-02-22T02:41:42.200Z,8.40
2023-02-22T02:44:16.778Z,8.30
2023-02-22T02:46:52.310Z,8.30
2023-02-22T02:49:28.087Z,8.40
2023-02-22T02:51:58.187Z,8.30
2023-02-22T02:54:26.523Z,8.20
2023-02-22T02:56:56.201Z,8.30
2023-02-22T02:59:30.203Z,8.20
2023-02-22T03:02:13.149Z,8.20
2023-02-22T03:05:07.298Z,8.20
2023-02-22T03:07:47.241Z,8.20
2023-02-22T03:10:44.559Z,8.10
2023-02-22T03:13:20.305Z,8.20
2023-02-22T03:15:54.625Z,8.10
2023-02-22T03:18:29.967Z,8.00
2023-02-22T03:21:11.787Z,8.10
2023-02-22T03:23:45.859Z,8.00
2023-02-22T03:26:19.413Z,8.10
2023-02-22T03:28:50.022Z,8.10
2023-02-22T03:31:22.285Z,8.00
2023-02-22T03:33:55.711Z,8.10
2023-02-22T03:36:29.952Z,8.10
2023-02-22T03:38:58.993Z,8.20
2023-02-22T03:41:29.819Z,8.00
2023-02-22T03:44:03.642Z,8.00
2023-02-22T03:46:33.489Z,8.10
2023-02-22T03:49:09.541Z,8.10
2023-02-22T03:51:41.857Z,8.20
2023-02-22T03:54:16.209Z,8.20
2023-02-22T03:56:51.777Z,8.10
2023-02-22T03:59:27.370Z,8.10
2023-02-22T04:01:56.734Z,8.20
2023-02-22T04:04:25.639Z,8.30
2023-02-22T04:06:55.434Z,8.20
2023-02-22T04:09:23.564Z,8.10
2023-02-22T04:11:51.680Z,8.20
2023-02-22T04:14:19.752Z,8.20
2023-02-22T04:16:47.769Z,8.20
2023-02-22T04:19:15.791Z,8.30
2023-02-22T04:21:44.128Z,8.30
2023-02-22T04:24:21.304Z,8.30
2023-02-22T04:26:49.913Z,8.30
2023-02-22T04:29:18.458Z,8.20
2023-02-22T04:31:46.661Z,8.20
2023-02-22T04:34:14.922Z,8.10
2023-02-22T04:36:44.575Z,8.00
2023-02-22T04:39:13.599Z,8.10
2023-02-22T04:41:42.994Z,8.10
2023-02-22T04:44:12.437Z,8.10
2023-02-22T04:46:42.061Z,8.10
2023-02-22T04:49:11.209Z,8.10
2023-02-22T04:51:42.430Z,8.00
2023-02-22T04:54:14.121Z,8.00
2023-02-22T04:56:49.240Z,7.90
2023-02-22T04:59:17.640Z,7.90
2023-02-22T05:01:48.038Z,7.80
2023-02-22T05:04:16.135Z,7.80
2023-02-22T05:06:44.138Z,7.80
2023-02-22T05:09:12.159Z,7.80
2023-02-22T05:11:40.312Z,7.80
2023-02-22T05:14:09.717Z,7.80
2023-02-22T05:16:38.128Z,7.90
2023-02-22T05:19:06.113Z,7.70
2023-02-22T05:21:34.156Z,7.70
2023-02-22T05:24:02.184Z,7.60
2023-02-22T05:26:30.593Z,7.60
2023-02-22T05:28:58.671Z,7.60
2023-02-22T05:31:28.167Z,7.60
2023-02-22T05:33:56.240Z,7.70
2023-02-22T05:36:24.262Z,7.70
2023-02-22T05:38:52.354Z,7.60
2023-02-22T05:41:20.584Z,7.60
2023-02-22T05:43:49.784Z,7.50
2023-02-22T05:46:17.828Z,7.60
2023-02-22T05:48:47.171Z,7.60
2023-02-22T05:51:15.476Z,7.60
2023-02-22T05:53:43.741Z,7.60
2023-02-22T05:56:11.769Z,7.60
2023-02-22T05:58:40.180Z,7.80
2023-02-22T06:01:08.200Z,7.90
2023-02-22T06:03:36.204Z,8.00
2023-02-22T06:06:05.889Z,7.90
2023-02-22T06:08:33.939Z,8.00
2023-02-22T06:11:01.928Z,8.00
2023-02-22T06:13:29.949Z,8.00
2023-02-22T06:15:59.028Z,8.00
2023-02-22T06:18:30.351Z,7.90
2023-02-22T06:20:58.651Z,7.90
2023-02-22T06:23:28.447Z,7.80
2023-02-22T06:25:56.486Z,7.80
2023-02-22T06:28:24.723Z,7.80
2023-02-22T06:30:52.797Z,7.80
2023-02-22T06:33:20.826Z,7.80
2023-02-22T06:35:48.801Z,7.70
2023-02-22T06:38:22.683Z,7.70
2023-02-22T06:40:52.382Z,7.70
2023-02-22T06:43:20.386Z,7.80
2023-02-22T06:45:48.643Z,7.70
2023-02-22T06:48:16.721Z,7.70
2023-02-22T06:50:44.802Z,7.60
2023-02-22T06:53:12.833Z,7.60
2023-02-22T06:55:40.854Z,7.70
2023-02-22T06:58:10.236Z,7.70
2023-02-22T07:00:38.311Z,7.70
2023-02-22T07:03:06.678Z,7.60
2023-02-22T07:05:34.686Z,7.50
2023-02-22T07:08:06.069Z,7.60
2023-02-22T07:10:36.134Z,7.60
2023-02-22T07:13:05.872Z,7.50
2023-02-22T07:15:36.576Z,7.60
2023-02-22T07:18:05.582Z,7.70
2023-02-22T07:20:33.731Z,7.70
2023-02-22T07:23:02.198Z,7.60
2023-02-22T07:25:30.251Z,7.60
2023-02-22T07:27:58.290Z,7.60
2023-02-22T07:30:30.665Z,7.60
2023-02-22T07:33:01.836Z,7.70
2023-02-22T07:35:31.782Z,7.80
2023-02-22T07:38:00.110Z,7.80
2023-02-22T07:40:28.620Z,7.80
2023-02-22T07:42:59.429Z,7.80
2023-02-22T07:45:30.440Z,7.90
2023-02-22T07:48:00.558Z,7.90
2023-02-22T07:50:31.134Z,7.90
2023-02-22T07:53:01.922Z,7.90
2023-02-22T07:55:31.772Z,7.90
2023-02-22T07:58:02.075Z,8.00
2023-02-22T08:00:31.970Z,8.00
2023-02-22T08:03:03.461Z,8.10
2023-02-22T08:05:32.864Z,8.10
2023-02-22T08:08:01.754Z,8.20
2023-02-22T08:10:31.109Z,8.20
2023-02-22T08:12:59.557Z,8.20
2023-02-22T08:15:32.851Z,8.20
2023-02-22T08:18:04.136Z,8.30
2023-02-22T08:20:32.437Z,8.30
2023-02-22T08:23:00.533Z,8.30
2023-02-22T08:25:30.599Z,8.30
2023-02-22T08:28:01.280Z,8.30
2023-02-22T08:30:30.998Z,8.30
2023-02-22T08:32:59.931Z,8.30
2023-02-22T08:35:30.061Z,8.40
2023-02-22T08:37:59.841Z,8.40
2023-02-22T08:40:31.030Z,8.40
2023-02-22T08:42:59.344Z,8.50
2023-02-22T08:45:27.941Z,8.50
2023-02-22T08:47:56.400Z,8.60
2023-02-22T08:50:26.784Z,8.70
2023-02-22T08:52:59.221Z,8.70
2023-02-22T08:55:30.087Z,8.80
2023-02-22T08:57:58.327Z,8.90
2023-02-22T09:00:26.484Z,9.00
2023-02-22T09:02:54.624Z,9.10
2023-02-22T09:05:23.108Z,9.10
2023-02-22T09:07:51.213Z,9.10
2023-02-22T09:10:24.716Z,9.10
2023-02-22T09:12:55.457Z,9.20
2023-02-22T09:15:24.981Z,9.30
2023-02-22T09:17:53.864Z,9.30
2023-02-22T09:20:24.808Z,9.30
2023-02-22T09:22:53.597Z,9.30
2023-02-22T09:25:24.062Z,9.30
2023-02-22T09:27:53.724Z,9.40
2023-02-22T09:30:26.390Z,9.40
2023-02-22T09:32:56.983Z,9.40
2023-02-22T09:35:27.024Z,9.60
2023-02-22T09:37:56.792Z,9.70
2023-02-22T09:40:30.239Z,9.80
2023-02-22T09:43:10.601Z,9.80
2023-02-22T09:45:48.330Z,9.80
2023-02-22T09:48:22.077Z,9.90
2023-02-22T09:50:53.811Z,10.00
2023-02-22T09:53:29.774Z,10.10
2023-02-22T09:56:03.504Z,10.10
2023-02-22T09:58:35.032Z,10.20
2023-02-22T10:01:19.721Z,10.20
2023-02-22T10:03:57.312Z,10.20
2023-02-22T10:06:26.080Z,10.20
2023-02-22T10:09:00.043Z,10.30
2023-02-22T10:11:44.314Z,10.30
2023-02-22T10:14:34.304Z,10.30
2023-02-22T10:17:10.167Z,10.20
2023-02-22T10:19:47.954Z,10.20
2023-02-22T10:22:31.045Z,10.30
2023-02-22T10:25:04.765Z,10.30
2023-02-22T10:27:39.979Z,10.30
2023-02-22T10:30:24.629Z,10.40
2023-02-22T10:32:59.531Z,10.40
2023-02-22T10:35:30.045Z,10.40
2023-02-22T10:38:01.148Z,10.50
2023-02-22T10:40:35.428Z,10.50
2023-02-22T10:43:07.645Z,10.40
2023-02-22T10:45:37.369Z,10.50
2023-02-22T10:48:11.625Z,10.50
2023-02-22T10:50:42.317Z,10.40
2023-02-22T10:53:11.569Z,10.50
2023-02-22T10:56:08.240Z,10.50
2023-02-22T10:58:50.283Z,10.50
2023-02-22T11:01:34.561Z,10.50
2023-02-22T11:04:08.838Z,10.50
2023-02-22T11:06:40.183Z,10.50
2023-02-22T11:09:11.871Z,10.50
2023-02-22T11:11:42.222Z,10.50
2023-02-22T11:14:12.209Z,10.60
2023-02-22T11:16:43.450Z,10.60
2023-02-22T11:19:23.100Z,10.60
2023-02-22T11:21:54.253Z,10.60
2023-02-22T11:24:30.370Z,10.70
2023-02-22T11:27:03.716Z,10.70
2023-02-22T11:29:36.388Z,10.70
2023-02-22T11:32:21.177Z,10.70
2023-02-22T11:35:00.253Z,10.70
2023-02-22T11:37:36.478Z,10.70
2023-02-22T11:40:13.886Z,10.70
2023-02-22T11:42:42.092Z,10.70
2023-02-22T11:45:14.360Z,10.70
2023-02-22T11:47:54.765Z,10.80
2023-02-22T11:50:30.957Z,10.80
2023-02-22T11:53:25.441Z,10.80
2023-02-22T11:56:02.909Z,10.80
2023-02-22T11:58:42.613Z,10.80
2023-02-22T12:01:20.992Z,10.80
2023-02-22T12:04:34.157Z,10.80
2023-02-22T12:07:26.428Z,10.80
2023-02-22T12:10:03.266Z,10.80
2023-02-22T12:12:41.199Z,10.80
2023-02-22T12:15:15.768Z,10.80
2023-02-22T12:18:00.491Z,10.80
2023-02-22T12:20:32.238Z,10.80
2023-02-22T12:23:07.172Z,10.90
2023-02-22T12:25:38.811Z,10.90
2023-02-22T12:28:24.584Z,10.90
2023-02-22T12:30:59.009Z,10.90
2023-02-22T12:33:32.482Z,10.80
2023-02-22T12:36:01.535Z,10.90
2023-02-22T12:38:37.240Z,10.90
2023-02-22T12:41:13.924Z,10.90
2023-02-22T12:43:47.405Z,10.90
2023-02-22T12:46:20.174Z,11.00
2023-02-22T12:48:55.674Z,11.00
2023-02-22T12:51:32.636Z,11.00
2023-02-22T12:54:08.473Z,11.00
2023-02-22T12:56:42.817Z,11.00
2023-02-22T12:59:19.207Z,11.00
2023-02-22T13:01:54.546Z,11.00
2023-02-22T13:04:24.328Z,11.00
2023-02-22T13:07:10.992Z,11.10
2023-02-22T13:10:08.085Z,11.10
2023-02-22T13:12:46.041Z,11.10
2023-02-22T13:15:24.797Z,11.10
2023-02-22T13:18:02.203Z,11.10
2023-02-22T13:20:37.932Z,11.10
2023-02-22T13:23:12.211Z,11.10
2023-02-22T13:25:45.070Z,11.10
2023-02-22T13:28:30.105Z,11.20
2023-02-22T13:31:13.318Z,11.20
2023-02-22T13:34:05.997Z,11.10
2023-02-22T13:37:02.021Z,11.10
2023-02-22T13:39:54.462Z,11.10
2023-02-22T13:42:35.784Z,11.20
2023-02-22T13:45:47.615Z,11.20
2023-02-22T13:48:38.689Z,11.20
2023-02-22T13:51:12.147Z,11.20
2023-02-22T13:53:51.184Z,11.30
2023-02-22T13:56:21.297Z,11.20
2023-02-22T13:58:52.959Z,11.30
2023-02-22T14:01:45.575Z,11.30
2023-02-22T14:04:45.420Z,11.30
2023-02-22T14:07:56.883Z,11.20
2023-02-22T14:10:51.765Z,11.20
2023-02-22T14:13:22.461Z,11.20
2023-02-22T14:16:22.653Z,11.20
2023-02-22T14:19:01.116Z,11.20
2023-02-22T14:21:29.802Z,11.20
2023-02-22T14:24:06.967Z,11.20
2023-02-22T14:26:38.606Z,11.20
2023-02-22T14:29:18.406Z,11.20
2023-02-22T14:32:07.745Z,11.20
2023-02-22T14:34:45.219Z,11.20
2023-02-22T14:37:17.234Z,11.20
2023-02-22T14:39:48.978Z,11.20
2023-02-22T14:42:24.108Z,11.20
2023-02-22T14:44:58.229Z,11.20
2023-02-22T14:47:30.548Z,11.20
2023-02-22T14:50:06.001Z,11.20
2023-02-22T14:52:37.635Z,11.20
2023-02-22T14:55:15.054Z,11.20
2023-02-22T14:58:00.329Z,11.20
2023-02-22T15:00:37.909Z,11.20
2023-02-22T15:03:06.113Z,11.20
2023-02-22T15:05:39.263Z,11.20
2023-02-22T15:08:09.472Z,11.20
2023-02-22T15:10:43.585Z,11.20
2023-02-22T15:13:19.636Z,11.20
2023-02-22T15:15:49.938Z,11.20
2023-02-22T15:18:29.349Z,11.20
2023-02-22T15:21:00.437Z,11.20
2023-02-22T15:23:33.411Z,11.20
2023-02-22T15:26:02.743Z,11.20
2023-02-22T15:28:32.294Z,11.20
2023-02-22T15:31:17.214Z,11.20
2023-02-22T15:33:45.514Z,11.20
2023-02-22T15:36:17.410Z,11.20
2023-02-22T15:38:50.244Z,11.20
2023-02-22T15:41:27.780Z,11.20
2023-02-22T15:44:17.688Z,11.20
2023-02-22T15:46:52.200Z,11.20
2023-02-22T15:49:24.305Z,11.20
2023-02-22T15:52:05.215Z,11.20
2023-02-22T15:54:43.525Z,11.20
2023-02-22T15:57:16.743Z,11.20
2023-02-22T15:59:49.711Z,11.20
2023-02-22T16:02:41.560Z,11.20
2023-02-22T16:05:12.617Z,11.20
2023-02-22T16:07:45.270Z,11.20
2023-02-22T16:10:28.512Z,11.20
2023-02-22T16:13:11.185Z,11.20
2023-02-22T16:15:53.100Z,11.20
2023-02-22T16:18:31.317Z,11.20
2023-02-22T16:21:05.753Z,11.20
2023-02-22T16:23:45.447Z,11.20
2023-02-22T16:26:29.265Z,11.20
2023-02-22T16:28:59.620Z,11.20
2023-02-22T16:31:33.583Z,11.20
2023-02-22T16:34:02.283Z,11.10
2023-02-22T16:36:40.667Z,11.20
2023-02-22T16:39:13.935Z,11.20
2023-02-22T16:41:42.665Z,11.10
2023-02-22T16:44:12.866Z,11.10
2023-02-22T16:46:42.864Z,11.10
2023-02-22T16:49:11.742Z,11.10
2023-02-22T16:51:44.914Z,11.10
2023-02-22T16:54:15.385Z,11.10
2023-02-22T16:56:43.584Z,11.00
2023-02-22T16:59:15.707Z,11.00
2023-02-22T17:01:45.480Z,11.00
2023-02-22T17:04:17.748Z,10.90
2023-02-22T17:06:45.843Z,11.00
2023-02-22T17:09:15.288Z,11.00
2023-02-22T17:11:44.387Z,11.00
2023-02-22T17:14:20.693Z,11.00
2023-02-22T17:16:50.220Z,11.00
2023-02-22T17:19:19.948Z,10.90
2023-02-22T17:21:48.333Z,10.90
2023-02-22T17:24:20.013Z,10.90
2023-02-22T17:26:48.055Z,10.90
2023-02-22T17:29:17.738Z,10.80
2023-02-22T17:31:46.378Z,10.80
2023-02-22T17:34:16.167Z,10.80
2023-02-22T17:36:44.302Z,10.90
2023-02-22T17:39:13.427Z,10.90
2023-02-22T17:41:41.459Z,10.90
2023-02-22T17:44:10.117Z,10.90
2023-02-22T17:46:40.685Z,10.90
2023-02-22T17:49:09.072Z,10.80
2023-02-22T17:51:41.086Z,10.80
2023-02-22T17:54:10.414Z,10.80
2023-02-22T17:56:38.548Z,10.80
2023-02-22T17:59:09.035Z,10.80
2023-02-22T18:01:37.367Z,10.80
2023-02-22T18:04:05.897Z,10.80
2023-02-22T18:06:35.125Z,10.80
2023-02-22T18:09:10.456Z,10.80
2023-02-22T18:11:40.250Z,10.80
2023-02-22T18:14:10.774Z,10.70
2023-02-22T18:16:39.349Z,10.70
2023-02-22T18:19:07.487Z,10.70
2023-02-22T18:21:35.518Z,10.60
2023-02-22T18:24:05.397Z,10.60
2023-02-22T18:26:33.519Z,10.60
2023-02-22T18:29:01.897Z,10.60
2023-02-22T18:31:29.985Z,10.60
2023-02-22T18:33:58.365Z,10.60
2023-02-22T18:36:26.570Z,10.60
2023-02-22T18:38:55.595Z,10.50
2023-02-22T18:41:26.253Z,10.50
2023-02-22T18:43:57.503Z,10.50
2023-02-22T18:46:25.860Z,10.50
2023-02-22T18:48:56.527Z,10.40
2023-02-22T18:51:25.761Z,10.40
2023-02-22T18:53:59.874Z,10.40
2023-02-22T18:56:30.727Z,10.40
2023-02-22T18:59:01.099Z,10.40
2023-02-22T19:01:30.060Z,10.40
2023-02-22T19:03:59.261Z,10.30
2023-02-22T19:06:27.405Z,10.40
2023-02-22T19:08:55.416Z,10.40
2023-02-22T19:11:25.305Z,10.30
2023-02-22T19:13:57.417Z,10.30
2023-02-22T19:16:27.396Z,10.30
2023-02-22T19:18:57.563Z,10.30
2023-02-22T19:21:27.545Z,10.30
2023-02-22T19:24:01.615Z,10.30
2023-02-22T19:26:30.396Z,10.30
2023-02-22T19:29:04.629Z,10.30
2023-02-22T19:31:34.465Z,10.30
2023-02-22T19:34:04.084Z,10.30
2023-02-22T19:36:32.962Z,10.30
2023-02-22T19:39:02.489Z,10.20
2023-02-22T19:41:31.106Z,10.20
2023-02-22T19:44:00.655Z,10.20
2023-02-22T19:46:28.810Z,10.20
2023-02-22T19:48:57.102Z,10.20
2023-02-22T19:51:27.932Z,10.10
2023-02-22T19:53:58.726Z,10.10
2023-02-22T19:56:27.500Z,10.10
2023-02-22T19:58:57.456Z,10.00
2023-02-22T20:01:30.296Z,10.00
2023-02-22T20:04:01.424Z,10.00
2023-02-22T20:06:35.090Z,10.00
2023-02-22T20:09:05.349Z,9.90
2023-02-22T20:11:36.593Z,10.00
2023-02-22T20:14:07.291Z,10.00
2023-02-22T20:16:38.996Z,10.00
2023-02-22T20:19:08.882Z,9.90
2023-02-22T20:21:38.857Z,10.00
2023-02-22T20:24:12.289Z,10.00
2023-02-22T20:26:41.544Z,9.90
2023-02-22T20:29:11.961Z,9.90
2023-02-22T20:31:44.268Z,9.90
2023-02-22T20:34:14.136Z,10.00
2023-02-22T20:36:44.147Z,10.00
2023-02-22T20:39:15.989Z,10.00
2023-02-22T20:41:47.298Z,10.00
2023-02-22T20:44:18.472Z,9.90
2023-02-22T20:46:50.109Z,9.90
2023-02-22T20:49:21.585Z,9.90
2023-02-22T20:51:50.777Z,9.90
2023-02-22T20:54:20.018Z,9.80
2023-02-22T20:56:52.300Z,9.80
2023-02-22T20:59:22.637Z,9.80
2023-02-22T21:01:54.694Z,9.80
2023-02-22T21:04:23.911Z,9.80
2023-02-22T21:06:52.947Z,9.80
2023-02-22T21:09:22.137Z,9.80
2023-02-22T21:11:50.392Z,9.80
2023-02-22T21:14:19.783Z,9.70
2023-02-22T21:16:49.525Z,9.80
2023-02-22T21:19:27.996Z,9.80
2023-02-22T21:21:58.019Z,9.80
2023-02-22T21:24:27.408Z,9.80
2023-02-22T21:26:59.052Z,9.80
2023-02-22T21:29:28.277Z,9.80
2023-02-22T21:31:56.850Z,9.90
2023-02-22T21:34:26.616Z,9.80
2023-02-22T21:36:55.026Z,9.80
2023-02-22T21:39:28.086Z,9.70
2023-02-22T21:42:00.045Z,9.70
2023-02-22T21:44:28.948Z,9.80
2023-02-22T21:46:57.121Z,9.80
2023-02-22T21:49:26.575Z,9.70
2023-02-22T21:51:54.577Z,9.70
2023-02-22T21:54:22.948Z,9.70
2023-02-22T21:56:51.487Z,9.70
2023-02-22T21:59:20.911Z,9.80
2023-02-22T22:01:51.052Z,9.70
2023-02-22T22:04:20.611Z,9.70
2023-02-22T22:06:51.547Z,9.70
2023-02-22T22:09:20.344Z,9.80
2023-02-22T22:11:50.511Z,9.90
2023-02-22T22:14:19.636Z,9.90
2023-02-22T22:16:48.707Z,9.90
2023-02-22T22:19:17.701Z,9.90
2023-02-22T22:21:48.683Z,9.90
2023-02-22T22:24:21.027Z,9.80
2023-02-22T22:26:51.011Z,9.80
2023-02-22T22:29:19.564Z,9.70
2023-02-22T22:31:47.750Z,9.70
2023-02-22T22:34:15.821Z,9.80
2023-02-22T22:36:43.874Z,9.80
2023-02-22T22:39:13.732Z,9.80
2023-02-22T22:41:44.642Z,9.70
2023-02-22T22:44:15.233Z,9.80
2023-02-22T22:46:49.053Z,9.70
2023-02-22T22:49:18.380Z,9.70
2023-02-22T22:51:47.391Z,9.70
2023-02-22T22:54:15.821Z,9.80
2023-02-22T22:56:45.292Z,9.90
2023-02-22T22:59:13.545Z,9.80
2023-02-22T23:01:44.527Z,9.80
2023-02-22T23:04:16.219Z,9.80
2023-02-22T23:06:46.196Z,9.90
2023-02-22T23:09:18.641Z,9.90
2023-02-22T23:11:50.825Z,9.80
2023-02-22T23:14:21.366Z,9.90
2023-02-22T23:16:50.787Z,9.90
2023-02-22T23:19:19.540Z,9.90
2023-02-22T23:21:49.248Z,9.90
2023-02-22T23:24:21.007Z,9.90
2023-02-22T23:26:50.386Z,9.90
2023-02-22T23:29:20.452Z,9.90
2023-02-22T23:31:49.360Z,9.90
2023-02-22T23:34:18.567Z,9.90
2023-02-22T23:36:47.576Z,9.90
2023-02-22T23:39:17.937Z,9.90
2023-02-22T23:41:45.987Z,9.90
2023-02-22T23:44:17.591Z,9.90
2023-02-22T23:46:48.021Z,9.90
2023-02-22T23:49:20.255Z,9.90
2023-02-22T23:51:48.882Z,9.90
2023-02-22T23:54:19.353Z,9.90
2023-02-22T23:56:56.326Z,9.90
2023-02-22T23:59:27.236Z,9.90
